sensor_id;sensor_type;location;lat;lon;timestamp;pressure;altitude;pressure_sealevel;temperature;humidity
36010;BME280;22076;52.182;5.404;2024-01-11T00:01:34;103700.88;;;3.41;93.16
36010;BME280;22076;52.182;5.404;2024-01-11T00:04:00;103694.63;;;3.31;94.26
36010;BME280;22076;52.182;5.404;2024-01-11T00:06:27;103696.25;;;3.26;94.22
36010;BME280;22076;52.182;5.404;2024-01-11T00:08:53;103694.47;;;3.24;93.88
36010;BME280;22076;52.182;5.404;2024-01-11T00:11:20;103696.19;;;3.22;94.31
36010;BME280;22076;52.182;5.404;2024-01-11T00:13:46;103704.78;;;3.22;93.67
36010;BME280;22076;52.182;5.404;2024-01-11T00:16:13;103691.91;;;3.24;94.05
36010;BME280;22076;52.182;5.404;2024-01-11T00:18:41;103685.31;;;3.38;94.51
36010;BME280;22076;52.182;5.404;2024-01-11T00:21:07;103698.63;;;3.16;94.34
36010;BME280;22076;52.182;5.404;2024-01-11T00:23:34;103696.06;;;3.17;94.25
36010;BME280;22076;52.182;5.404;2024-01-11T00:26:00;103691.63;;;3.10;94.50
36010;BME280;22076;52.182;5.404;2024-01-11T00:28:27;103696.25;;;3.26;94.73
36010;BME280;22076;52.182;5.404;2024-01-11T00:30:53;103689.22;;;3.19;95.37
36010;BME280;22076;52.182;5.404;2024-01-11T00:33:20;103690.22;;;3.26;94.60
36010;BME280;22076;52.182;5.404;2024-01-11T00:35:48;103682.81;;;3.44;95.44
36010;BME280;22076;52.182;5.404;2024-01-11T00:38:14;103684.34;;;3.33;96.04
36010;BME280;22076;52.182;5.404;2024-01-11T00:40:41;103685.84;;;3.22;95.80
36010;BME280;22076;52.182;5.404;2024-01-11T00:43:07;103678.97;;;3.24;96.08
36010;BME280;22076;52.182;5.404;2024-01-11T00:45:34;103677.16;;;3.18;96.27
36010;BME280;22076;52.182;5.404;2024-01-11T00:48:00;103683.06;;;3.11;96.49
36010;BME280;22076;52.182;5.404;2024-01-11T00:50:27;103680.84;;;3.31;96.73
36010;BME280;22076;52.182;5.404;2024-01-11T00:52:55;103679.59;;;3.55;96.12
36010;BME280;22076;52.182;5.404;2024-01-11T00:55:22;103683.59;;;3.39;96.31
36010;BME280;22076;52.182;5.404;2024-01-11T00:57:49;103689.56;;;3.36;95.80
36010;BME280;22076;52.182;5.404;2024-01-11T01:00:16;103690.41;;;3.35;96.66
36010;BME280;22076;52.182;5.404;2024-01-11T01:02:43;103682.50;;;3.27;96.28
36010;BME280;22076;52.182;5.404;2024-01-11T01:05:09;103692.19;;;3.38;96.99
36010;BME280;22076;52.182;5.404;2024-01-11T01:07:36;103686.31;;;3.45;96.92
36010;BME280;22076;52.182;5.404;2024-01-11T01:10:04;103678.84;;;3.60;97.85
36010;BME280;22076;52.182;5.404;2024-01-11T01:12:31;103685.34;;;3.40;97.02
36010;BME280;22076;52.182;5.404;2024-01-11T01:14:57;103691.31;;;3.36;97.08
36010;BME280;22076;52.182;5.404;2024-01-11T01:17:24;103702.53;;;3.38;97.49
36010;BME280;22076;52.182;5.404;2024-01-11T01:19:50;103700.50;;;3.23;97.48
36010;BME280;22076;52.182;5.404;2024-01-11T01:22:17;103702.75;;;3.06;97.38
36010;BME280;22076;52.182;5.404;2024-01-11T01:24:44;103701.25;;;3.17;97.87
36010;BME280;22076;52.182;5.404;2024-01-11T01:27:12;103711.03;;;3.32;97.91
36010;BME280;22076;52.182;5.404;2024-01-11T01:29:38;103702.09;;;3.16;97.60
36010;BME280;22076;52.182;5.404;2024-01-11T01:32:05;103698.75;;;3.22;97.57
36010;BME280;22076;52.182;5.404;2024-01-11T01:34:31;103703.94;;;3.22;97.17
36010;BME280;22076;52.182;5.404;2024-01-11T01:36:58;103699.72;;;3.25;96.94
36010;BME280;22076;52.182;5.404;2024-01-11T01:39:24;103706.38;;;3.16;97.49
36010;BME280;22076;52.182;5.404;2024-01-11T01:41:51;103705.50;;;3.13;97.95
36010;BME280;22076;52.182;5.404;2024-01-11T01:44:19;103707.47;;;3.27;98.25
36010;BME280;22076;52.182;5.404;2024-01-11T01:46:45;103713.97;;;3.08;97.94
36010;BME280;22076;52.182;5.404;2024-01-11T01:49:13;103707.22;;;3.14;98.04
36010;BME280;22076;52.182;5.404;2024-01-11T01:51:40;103709.56;;;3.04;97.95
36010;BME280;22076;52.182;5.404;2024-01-11T01:54:06;103715.56;;;3.01;97.94
36010;BME280;22076;52.182;5.404;2024-01-11T01:56:33;103706.88;;;2.99;99.14
36010;BME280;22076;52.182;5.404;2024-01-11T01:59:00;103712.31;;;3.11;98.40
36010;BME280;22076;52.182;5.404;2024-01-11T02:01:30;103729.75;;;3.20;99.12
36010;BME280;22076;52.182;5.404;2024-01-11T02:03:57;103729.31;;;3.02;99.31
36010;BME280;22076;52.182;5.404;2024-01-11T02:06:25;103734.31;;;2.94;99.53
36010;BME280;22076;52.182;5.404;2024-01-11T02:08:55;103736.75;;;2.86;98.96
36010;BME280;22076;52.182;5.404;2024-01-11T02:11:22;103740.97;;;2.83;99.75
36010;BME280;22076;52.182;5.404;2024-01-11T02:13:49;103740.97;;;2.83;99.26
36010;BME280;22076;52.182;5.404;2024-01-11T02:16:16;103741.03;;;2.86;99.79
36010;BME280;22076;52.182;5.404;2024-01-11T02:18:44;103734.56;;;3.05;100.00
36010;BME280;22076;52.182;5.404;2024-01-11T02:21:12;103730.22;;;3.02;100.00
36010;BME280;22076;52.182;5.404;2024-01-11T02:23:43;103720.75;;;3.03;100.00
36010;BME280;22076;52.182;5.404;2024-01-11T02:26:13;103718.19;;;3.04;100.00
36010;BME280;22076;52.182;5.404;2024-01-11T02:28:43;103712.94;;;3.00;100.00
36010;BME280;22076;52.182;5.404;2024-01-11T02:31:10;103721.28;;;2.88;100.00
36010;BME280;22076;52.182;5.404;2024-01-11T02:33:37;103716.75;;;2.77;100.00
36010;BME280;22076;52.182;5.404;2024-01-11T02:36:04;103722.06;;;2.84;100.00
36010;BME280;22076;52.182;5.404;2024-01-11T02:38:31;103711.75;;;2.84;100.00
36010;BME280;22076;52.182;5.404;2024-01-11T02:40:59;103714.38;;;2.87;100.00
36010;BME280;22076;52.182;5.404;2024-01-11T02:43:27;103710.31;;;2.98;100.00
36010;BME280;22076;52.182;5.404;2024-01-11T02:45:54;103709.31;;;2.91;100.00
36010;BME280;22076;52.182;5.404;2024-01-11T02:48:20;103706.50;;;2.80;100.00
36010;BME280;22076;52.182;5.404;2024-01-11T02:50:47;103708.72;;;2.65;100.00
36010;BME280;22076;52.182;5.404;2024-01-11T02:53:13;103712.91;;;2.60;100.00
36010;BME280;22076;52.182;5.404;2024-01-11T02:55:40;103711.88;;;2.53;100.00
36010;BME280;22076;52.182;5.404;2024-01-11T02:58:07;103713.47;;;2.48;100.00
36010;BME280;22076;52.182;5.404;2024-01-11T03:00:34;103709.47;;;2.61;100.00
36010;BME280;22076;52.182;5.404;2024-01-11T03:03:01;103710.00;;;2.46;100.00
36010;BME280;22076;52.182;5.404;2024-01-11T03:05:27;103725.09;;;2.29;100.00
36010;BME280;22076;52.182;5.404;2024-01-11T03:07:54;103713.97;;;2.31;100.00
36010;BME280;22076;52.182;5.404;2024-01-11T03:10:20;103728.78;;;2.40;100.00
36010;BME280;22076;52.182;5.404;2024-01-11T03:12:47;103734.16;;;2.50;100.00
36010;BME280;22076;52.182;5.404;2024-01-11T03:15:14;103738.91;;;2.33;100.00
36010;BME280;22076;52.182;5.404;2024-01-11T03:17:42;103730.91;;;2.57;100.00
36010;BME280;22076;52.182;5.404;2024-01-11T03:20:09;103717.03;;;2.53;100.00
36010;BME280;22076;52.182;5.404;2024-01-11T03:22:36;103724.03;;;2.57;100.00
36010;BME280;22076;52.182;5.404;2024-01-11T03:25:03;103723.38;;;2.66;100.00
36010;BME280;22076;52.182;5.404;2024-01-11T03:27:29;103717.84;;;2.51;100.00
36010;BME280;22076;52.182;5.404;2024-01-11T03:29:56;103729.06;;;2.51;100.00
36010;BME280;22076;52.182;5.404;2024-01-11T03:32:23;103731.09;;;2.64;100.00
36010;BME280;22076;52.182;5.404;2024-01-11T03:34:50;103725.53;;;2.86;100.00
36010;BME280;22076;52.182;5.404;2024-01-11T03:37:17;103735.13;;;2.53;100.00
36010;BME280;22076;52.182;5.404;2024-01-11T03:39:43;103733.69;;;2.66;100.00
36010;BME280;22076;52.182;5.404;2024-01-11T03:42:10;103733.72;;;2.68;100.00
36010;BME280;22076;52.182;5.404;2024-01-11T03:44:37;103729.53;;;2.73;100.00
36010;BME280;22076;52.182;5.404;2024-01-11T03:47:04;103731.28;;;2.74;100.00
36010;BME280;22076;52.182;5.404;2024-01-11T03:49:30;103734.53;;;2.65;100.00
36010;BME280;22076;52.182;5.404;2024-01-11T03:51:58;103734.00;;;2.78;100.00
36010;BME280;22076;52.182;5.404;2024-01-11T03:54:25;103736.19;;;2.61;100.00
36010;BME280;22076;52.182;5.404;2024-01-11T03:56:51;103731.81;;;2.59;100.00
36010;BME280;22076;52.182;5.404;2024-01-11T03:59:18;103748.97;;;2.57;100.00
36010;BME280;22076;52.182;5.404;2024-01-11T04:01:44;103742.69;;;2.47;100.00
36010;BME280;22076;52.182;5.404;2024-01-11T04:04:11;103733.34;;;2.51;100.00
36010;BME280;22076;52.182;5.404;2024-01-11T04:06:38;103747.97;;;2.50;100.00
36010;BME280;22076;52.182;5.404;2024-01-11T04:09:05;103741.44;;;2.66;100.00
36010;BME280;22076;52.182;5.404;2024-01-11T04:11:32;103748.66;;;2.44;100.00
36010;BME280;22076;52.182;5.404;2024-01-11T04:13:58;103766.59;;;2.38;100.00
36010;BME280;22076;52.182;5.404;2024-01-11T04:16:25;103760.50;;;2.36;100.00
36010;BME280;22076;52.182;5.404;2024-01-11T04:18:52;103768.59;;;2.17;100.00
36010;BME280;22076;52.182;5.404;2024-01-11T04:21:22;103757.16;;;2.40;100.00
36010;BME280;22076;52.182;5.404;2024-01-11T04:23:49;103765.06;;;2.13;100.00
36010;BME280;22076;52.182;5.404;2024-01-11T04:26:17;103772.13;;;2.19;100.00
36010;BME280;22076;52.182;5.404;2024-01-11T04:28:44;103762.31;;;2.40;100.00
36010;BME280;22076;52.182;5.404;2024-01-11T04:31:11;103767.19;;;2.28;100.00
36010;BME280;22076;52.182;5.404;2024-01-11T04:33:40;103780.09;;;2.28;100.00
36010;BME280;22076;52.182;5.404;2024-01-11T04:36:06;103776.28;;;2.13;100.00
36010;BME280;22076;52.182;5.404;2024-01-11T04:38:33;103776.91;;;2.05;100.00
36010;BME280;22076;52.182;5.404;2024-01-11T04:41:00;103781.09;;;2.01;100.00
36010;BME280;22076;52.182;5.404;2024-01-11T04:43:28;103786.50;;;2.10;100.00
36010;BME280;22076;52.182;5.404;2024-01-11T04:45:54;103781.53;;;2.18;100.00
36010;BME280;22076;52.182;5.404;2024-01-11T04:48:21;103780.28;;;2.02;100.00
36010;BME280;22076;52.182;5.404;2024-01-11T04:50:47;103782.00;;;2.02;100.00
36010;BME280;22076;52.182;5.404;2024-01-11T04:53:13;103783.91;;;2.10;100.00
36010;BME280;22076;52.182;5.404;2024-01-11T04:55:40;103791.78;;;2.15;100.00
36010;BME280;22076;52.182;5.404;2024-01-11T04:58:07;103789.75;;;2.03;100.00
36010;BME280;22076;52.182;5.404;2024-01-11T05:00:35;103771.63;;;2.34;100.00
36010;BME280;22076;52.182;5.404;2024-01-11T05:03:01;103775.09;;;2.34;100.00
36010;BME280;22076;52.182;5.404;2024-01-11T05:05:28;103770.06;;;2.40;100.00
36010;BME280;22076;52.182;5.404;2024-01-11T05:07:54;103762.72;;;2.22;100.00
36010;BME280;22076;52.182;5.404;2024-01-11T05:10:21;103768.41;;;2.09;100.00
36010;BME280;22076;52.182;5.404;2024-01-11T05:12:48;103771.06;;;2.12;100.00
36010;BME280;22076;52.182;5.404;2024-01-11T05:15:14;103780.50;;;2.11;100.00
36010;BME280;22076;52.182;5.404;2024-01-11T05:17:42;103772.94;;;2.51;100.00
36010;BME280;22076;52.182;5.404;2024-01-11T05:20:09;103772.88;;;2.50;100.00
36010;BME280;22076;52.182;5.404;2024-01-11T05:22:36;103770.28;;;2.50;100.00
36010;BME280;22076;52.182;5.404;2024-01-11T05:25:03;103758.31;;;2.52;100.00
36010;BME280;22076;52.182;5.404;2024-01-11T05:27:29;103748.72;;;2.46;100.00
36010;BME280;22076;52.182;5.404;2024-01-11T05:29:56;103742.75;;;2.48;100.00
36010;BME280;22076;52.182;5.404;2024-01-11T05:32:22;103750.72;;;2.23;100.00
36010;BME280;22076;52.182;5.404;2024-01-11T05:34:50;103739.03;;;2.37;100.00
36010;BME280;22076;52.182;5.404;2024-01-11T05:37:17;103745.53;;;2.21;100.00
36010;BME280;22076;52.182;5.404;2024-01-11T05:39:46;103755.72;;;2.17;100.00
36010;BME280;22076;52.182;5.404;2024-01-11T05:42:12;103751.78;;;2.31;100.00
36010;BME280;22076;52.182;5.404;2024-01-11T05:44:39;103744.97;;;2.33;100.00
36010;BME280;22076;52.182;5.404;2024-01-11T05:47:06;103737.25;;;2.35;100.00
36010;BME280;22076;52.182;5.404;2024-01-11T05:49:32;103743.16;;;2.29;100.00
36010;BME280;22076;52.182;5.404;2024-01-11T05:52:00;103758.97;;;2.44;100.00
36010;BME280;22076;52.182;5.404;2024-01-11T05:54:27;103762.00;;;2.26;100.00
36010;BME280;22076;52.182;5.404;2024-01-11T05:56:53;103773.03;;;2.22;100.00
36010;BME280;22076;52.182;5.404;2024-01-11T05:59:21;103780.69;;;2.18;100.00
36010;BME280;22076;52.182;5.404;2024-01-11T06:01:53;103770.78;;;2.01;100.00
36010;BME280;22076;52.182;5.404;2024-01-11T06:04:20;103774.19;;;2.00;100.00
36010;BME280;22076;52.182;5.404;2024-01-11T06:06:46;103775.94;;;2.01;100.00
36010;BME280;22076;52.182;5.404;2024-01-11T06:09:14;103781.69;;;2.23;100.00
36010;BME280;22076;52.182;5.404;2024-01-11T06:11:41;103793.78;;;2.25;100.00
36010;BME280;22076;52.182;5.404;2024-01-11T06:14:07;103802.19;;;2.18;100.00
36010;BME280;22076;52.182;5.404;2024-01-11T06:16:34;103818.38;;;2.12;100.00
36010;BME280;22076;52.182;5.404;2024-01-11T06:19:00;103829.22;;;2.01;100.00
36010;BME280;22076;52.182;5.404;2024-01-11T06:21:27;103837.00;;;2.02;100.00
36010;BME280;22076;52.182;5.404;2024-01-11T06:23:54;103837.94;;;2.04;100.00
36010;BME280;22076;52.182;5.404;2024-01-11T06:26:21;103841.59;;;2.12;100.00
36010;BME280;22076;52.182;5.404;2024-01-11T06:28:48;103838.53;;;1.95;100.00
36010;BME280;22076;52.182;5.404;2024-01-11T06:31:15;103843.03;;;2.03;100.00
36010;BME280;22076;52.182;5.404;2024-01-11T06:33:43;103843.19;;;2.09;100.00
36010;BME280;22076;52.182;5.404;2024-01-11T06:36:09;103853.31;;;2.01;100.00
36010;BME280;22076;52.182;5.404;2024-01-11T06:38:36;103863.28;;;2.21;100.00
36010;BME280;22076;52.182;5.404;2024-01-11T06:41:03;103860.44;;;2.10;100.00
36010;BME280;22076;52.182;5.404;2024-01-11T06:43:30;103859.69;;;2.14;100.00
36010;BME280;22076;52.182;5.404;2024-01-11T06:46:02;103857.09;;;2.14;100.00
36010;BME280;22076;52.182;5.404;2024-01-11T06:48:29;103859.78;;;1.87;100.00
36010;BME280;22076;52.182;5.404;2024-01-11T06:50:55;103866.56;;;1.85;100.00
36010;BME280;22076;52.182;5.404;2024-01-11T06:53:22;103870.47;;;1.99;100.00
36010;BME280;22076;52.182;5.404;2024-01-11T06:55:48;103874.69;;;1.97;100.00
36010;BME280;22076;52.182;5.404;2024-01-11T06:58:17;103882.22;;;1.91;100.00
36010;BME280;22076;52.182;5.404;2024-01-11T07:00:45;103867.28;;;2.09;100.00
36010;BME280;22076;52.182;5.404;2024-01-11T07:03:12;103864.44;;;2.00;100.00
36010;BME280;22076;52.182;5.404;2024-01-11T07:05:39;103854.19;;;2.34;100.00
36010;BME280;22076;52.182;5.404;2024-01-11T07:08:06;103863.72;;;2.04;100.00
36010;BME280;22076;52.182;5.404;2024-01-11T07:10:32;103853.34;;;2.03;100.00
36010;BME280;22076;52.182;5.404;2024-01-11T07:12:59;103854.13;;;2.00;100.00
36010;BME280;22076;52.182;5.404;2024-01-11T07:15:25;103844.97;;;2.10;100.00
36010;BME280;22076;52.182;5.404;2024-01-11T07:17:57;103847.28;;;2.01;100.00
36010;BME280;22076;52.182;5.404;2024-01-11T07:20:23;103846.47;;;1.73;100.00
36010;BME280;22076;52.182;5.404;2024-01-11T07:22:50;103842.25;;;1.75;100.00
36010;BME280;22076;52.182;5.404;2024-01-11T07:25:16;103831.78;;;1.99;100.00
36010;BME280;22076;52.182;5.404;2024-01-11T07:27:43;103830.09;;;2.01;100.00
36010;BME280;22076;52.182;5.404;2024-01-11T07:30:11;103828.75;;;2.15;100.00
36010;BME280;22076;52.182;5.404;2024-01-11T07:32:38;103824.94;;;2.01;100.00
36010;BME280;22076;52.182;5.404;2024-01-11T07:35:06;103827.91;;;2.15;100.00
36010;BME280;22076;52.182;5.404;2024-01-11T07:37:36;103838.78;;;2.05;100.00
36010;BME280;22076;52.182;5.404;2024-01-11T07:40:03;103846.28;;;1.95;100.00
36010;BME280;22076;52.182;5.404;2024-01-11T07:42:29;103853.19;;;1.96;100.00
36010;BME280;22076;52.182;5.404;2024-01-11T07:44:56;103846.81;;;1.84;100.00
36010;BME280;22076;52.182;5.404;2024-01-11T07:47:22;103845.91;;;1.83;100.00
36010;BME280;22076;52.182;5.404;2024-01-11T07:49:49;103829.84;;;1.92;100.00
36010;BME280;22076;52.182;5.404;2024-01-11T07:52:17;103835.03;;;2.24;100.00
36010;BME280;22076;52.182;5.404;2024-01-11T07:54:44;103838.91;;;2.09;100.00
36010;BME280;22076;52.182;5.404;2024-01-11T07:57:11;103846.72;;;2.11;100.00
36010;BME280;22076;52.182;5.404;2024-01-11T07:59:37;103847.50;;;2.08;100.00
36010;BME280;22076;52.182;5.404;2024-01-11T08:02:04;103856.06;;;2.07;100.00
36010;BME280;22076;52.182;5.404;2024-01-11T08:04:31;103850.09;;;2.08;100.00
36010;BME280;22076;52.182;5.404;2024-01-11T08:06:58;103835.44;;;2.07;100.00
36010;BME280;22076;52.182;5.404;2024-01-11T08:09:26;103826.44;;;2.25;100.00
36010;BME280;22076;52.182;5.404;2024-01-11T08:11:53;103830.50;;;2.17;100.00
36010;BME280;22076;52.182;5.404;2024-01-11T08:14:20;103840.81;;;2.15;100.00
36010;BME280;22076;52.182;5.404;2024-01-11T08:16:47;103835.53;;;2.12;100.00
36010;BME280;22076;52.182;5.404;2024-01-11T08:19:14;103838.19;;;2.13;100.00
36010;BME280;22076;52.182;5.404;2024-01-11T08:21:40;103826.81;;;2.07;100.00
36010;BME280;22076;52.182;5.404;2024-01-11T08:24:07;103840.59;;;2.07;100.00
36010;BME280;22076;52.182;5.404;2024-01-11T08:26:36;103843.69;;;2.27;100.00
36010;BME280;22076;52.182;5.404;2024-01-11T08:29:02;103856.97;;;2.09;100.00
36010;BME280;22076;52.182;5.404;2024-01-11T08:31:31;103850.94;;;2.09;100.00
36010;BME280;22076;52.182;5.404;2024-01-11T08:33:58;103852.72;;;2.11;100.00
36010;BME280;22076;52.182;5.404;2024-01-11T08:36:24;103854.56;;;2.15;100.00
36010;BME280;22076;52.182;5.404;2024-01-11T08:38:56;103867.56;;;2.19;100.00
36010;BME280;22076;52.182;5.404;2024-01-11T08:41:22;103872.78;;;2.22;100.00
36010;BME280;22076;52.182;5.404;2024-01-11T08:43:50;103872.38;;;2.38;100.00
36010;BME280;22076;52.182;5.404;2024-01-11T08:46:23;103878.69;;;2.50;100.00
36010;BME280;22076;52.182;5.404;2024-01-11T08:48:50;103876.34;;;2.25;100.00
36010;BME280;22076;52.182;5.404;2024-01-11T08:51:17;103896.22;;;2.29;100.00
36010;BME280;22076;52.182;5.404;2024-01-11T08:53:43;103896.41;;;2.36;100.00
36010;BME280;22076;52.182;5.404;2024-01-11T08:56:10;103895.50;;;2.35;100.00
36010;BME280;22076;52.182;5.404;2024-01-11T08:58:37;103907.63;;;2.38;100.00
36010;BME280;22076;52.182;5.404;2024-01-11T09:01:05;103918.41;;;2.55;100.00
36010;BME280;22076;52.182;5.404;2024-01-11T09:03:33;103925.69;;;2.38;100.00
36010;BME280;22076;52.182;5.404;2024-01-11T09:06:00;103922.94;;;2.31;100.00
36010;BME280;22076;52.182;5.404;2024-01-11T09:08:27;103925.69;;;2.38;100.00
36010;BME280;22076;52.182;5.404;2024-01-11T09:10:54;103922.94;;;2.31;100.00
36010;BME280;22076;52.182;5.404;2024-01-11T09:13:20;103922.06;;;2.31;100.00
36010;BME280;22076;52.182;5.404;2024-01-11T09:15:47;103928.13;;;2.31;100.00
36010;BME280;22076;52.182;5.404;2024-01-11T09:18:15;103916.41;;;2.44;100.00
36010;BME280;22076;52.182;5.404;2024-01-11T09:20:42;103915.47;;;2.41;100.00
36010;BME280;22076;52.182;5.404;2024-01-11T09:23:09;103922.56;;;2.50;100.00
36010;BME280;22076;52.182;5.404;2024-01-11T09:25:36;103911.63;;;2.58;100.00
36010;BME280;22076;52.182;5.404;2024-01-11T09:28:03;103913.59;;;2.69;100.00
36010;BME280;22076;52.182;5.404;2024-01-11T09:30:30;103921.31;;;2.67;100.00
36010;BME280;22076;52.182;5.404;2024-01-11T09:32:56;103918.66;;;2.64;100.00
36010;BME280;22076;52.182;5.404;2024-01-11T09:35:24;103922.69;;;2.86;100.00
36010;BME280;22076;52.182;5.404;2024-01-11T09:37:51;103920.69;;;2.76;100.00
36010;BME280;22076;52.182;5.404;2024-01-11T09:40:19;103932.22;;;2.89;100.00
36010;BME280;22076;52.182;5.404;2024-01-11T09:42:46;103924.22;;;2.79;100.00
36010;BME280;22076;52.182;5.404;2024-01-11T09:45:14;103920.19;;;2.91;100.00
36010;BME280;22076;52.182;5.404;2024-01-11T09:47:42;103926.19;;;2.90;100.00
36010;BME280;22076;52.182;5.404;2024-01-11T09:50:09;103927.97;;;2.92;100.00
36010;BME280;22076;52.182;5.404;2024-01-11T09:52:44;103919.16;;;3.18;100.00
36010;BME280;22076;52.182;5.404;2024-01-11T09:55:11;103919.41;;;2.93;100.00
36010;BME280;22076;52.182;5.404;2024-01-11T09:57:41;103914.88;;;3.20;100.00
36010;BME280;22076;52.182;5.404;2024-01-11T10:00:13;103915.03;;;3.26;100.00
36010;BME280;22076;52.182;5.404;2024-01-11T10:02:40;103928.50;;;3.12;100.00
36010;BME280;22076;52.182;5.404;2024-01-11T10:05:07;103932.03;;;3.16;100.00
36010;BME280;22076;52.182;5.404;2024-01-11T10:07:34;103936.31;;;3.16;100.00
36010;BME280;22076;52.182;5.404;2024-01-11T10:10:02;103936.72;;;3.33;100.00
36010;BME280;22076;52.182;5.404;2024-01-11T10:12:28;103930.34;;;3.18;100.00
36010;BME280;22076;52.182;5.404;2024-01-11T10:15:04;103941.44;;;3.51;100.00
36010;BME280;22076;52.182;5.404;2024-01-11T10:17:31;103945.22;;;3.27;100.00
36010;BME280;22076;52.182;5.404;2024-01-11T10:19:58;103941.66;;;3.23;100.00
36010;BME280;22076;52.182;5.404;2024-01-11T10:22:25;103931.69;;;3.37;100.00
36010;BME280;22076;52.182;5.404;2024-01-11T10:25:09;103918.84;;;3.80;100.00
36010;BME280;22076;52.182;5.404;2024-01-11T10:27:36;103931.72;;;3.39;100.00
36010;BME280;22076;52.182;5.404;2024-01-11T10:30:03;103935.50;;;3.55;100.00
36010;BME280;22076;52.182;5.404;2024-01-11T10:32:33;103935.16;;;3.39;100.00
36010;BME280;22076;52.182;5.404;2024-01-11T10:35:03;103930.84;;;3.76;100.00
36010;BME280;22076;52.182;5.404;2024-01-11T10:37:31;103941.97;;;3.72;100.00
36010;BME280;22076;52.182;5.404;2024-01-11T10:40:02;103939.34;;;3.71;100.00
36010;BME280;22076;52.182;5.404;2024-01-11T10:42:35;103926.66;;;3.83;100.00
36010;BME280;22076;52.182;5.404;2024-01-11T10:45:10;103933.03;;;3.99;100.00
36010;BME280;22076;52.182;5.404;2024-01-11T10:47:42;103932.94;;;3.93;100.00
36010;BME280;22076;52.182;5.404;2024-01-11T10:50:15;103946.84;;;3.60;100.00
36010;BME280;22076;52.182;5.404;2024-01-11T10:52:48;103945.63;;;3.84;100.00
36010;BME280;22076;52.182;5.404;2024-01-11T10:55:20;103948.03;;;3.74;100.00
36010;BME280;22076;52.182;5.404;2024-01-11T10:57:51;103945.53;;;3.79;100.00
36010;BME280;22076;52.182;5.404;2024-01-11T11:00:19;103945.25;;;3.67;100.00
36010;BME280;22076;52.182;5.404;2024-01-11T11:02:48;103954.84;;;3.71;100.00
36010;BME280;22076;52.182;5.404;2024-01-11T11:05:18;103950.78;;;3.82;100.00
36010;BME280;22076;52.182;5.404;2024-01-11T11:07:47;103942.09;;;3.78;100.00
36010;BME280;22076;52.182;5.404;2024-01-11T11:10:14;103953.09;;;3.70;100.00
36010;BME280;22076;52.182;5.404;2024-01-11T11:12:42;103950.59;;;3.74;100.00
36010;BME280;22076;52.182;5.404;2024-01-11T11:15:11;103948.50;;;3.96;100.00
36010;BME280;22076;52.182;5.404;2024-01-11T11:17:38;103948.28;;;3.85;100.00
36010;BME280;22076;52.182;5.404;2024-01-11T11:20:06;103945.88;;;3.94;100.00
36010;BME280;22076;52.182;5.404;2024-01-11T11:22:34;103948.56;;;3.99;100.00
36010;BME280;22076;52.182;5.404;2024-01-11T11:25:04;103943.09;;;3.85;100.00
36010;BME280;22076;52.182;5.404;2024-01-11T11:27:34;103944.94;;;3.91;100.00
36010;BME280;22076;52.182;5.404;2024-01-11T11:30:01;103943.19;;;3.90;100.00
36010;BME280;22076;52.182;5.404;2024-01-11T11:32:43;103930.28;;;4.34;100.00
36010;BME280;22076;52.182;5.404;2024-01-11T11:35:09;103932.47;;;4.12;100.00
36010;BME280;22076;52.182;5.404;2024-01-11T11:37:36;103930.59;;;4.07;100.00
36010;BME280;22076;52.182;5.404;2024-01-11T11:40:04;103926.56;;;4.20;100.00
36010;BME280;22076;52.182;5.404;2024-01-11T11:42:31;103915.66;;;4.35;100.00
36010;BME280;22076;52.182;5.404;2024-01-11T11:44:57;103917.44;;;4.37;100.00
36010;BME280;22076;52.182;5.404;2024-01-11T11:47:24;103917.09;;;4.20;100.00
36010;BME280;22076;52.182;5.404;2024-01-11T11:50:07;103907.13;;;4.40;100.00
36010;BME280;22076;52.182;5.404;2024-01-11T11:52:35;103904.34;;;4.31;100.00
36010;BME280;22076;52.182;5.404;2024-01-11T11:55:03;103916.97;;;4.14;100.00
36010;BME280;22076;52.182;5.404;2024-01-11T11:57:30;103913.44;;;4.10;100.00
36010;BME280;22076;52.182;5.404;2024-01-11T11:59:58;103896.59;;;4.31;100.00
36010;BME280;22076;52.182;5.404;2024-01-11T12:02:25;103896.94;;;4.50;100.00
36010;BME280;22076;52.182;5.404;2024-01-11T12:04:53;103888.94;;;4.37;100.00
36010;BME280;22076;52.182;5.404;2024-01-11T12:07:21;103872.22;;;4.67;100.00
36010;BME280;22076;52.182;5.404;2024-01-11T12:09:48;103867.84;;;4.63;100.00
36010;BME280;22076;52.182;5.404;2024-01-11T12:12:15;103863.72;;;4.76;100.00
36010;BME280;22076;52.182;5.404;2024-01-11T12:14:43;103854.22;;;4.75;100.00
36010;BME280;22076;52.182;5.404;2024-01-11T12:17:11;103847.78;;;5.05;100.00
36010;BME280;22076;52.182;5.404;2024-01-11T12:19:38;103853.56;;;4.88;100.00
36010;BME280;22076;52.182;5.404;2024-01-11T12:22:07;103852.88;;;4.99;100.00
36010;BME280;22076;52.182;5.404;2024-01-11T12:24:37;103848.41;;;4.90;100.00
36010;BME280;22076;52.182;5.404;2024-01-11T12:27:04;103841.41;;;4.84;100.00
36010;BME280;22076;52.182;5.404;2024-01-11T12:29:31;103849.66;;;4.61;100.00
36010;BME280;22076;52.182;5.404;2024-01-11T12:31:58;103854.97;;;4.69;100.00
36010;BME280;22076;52.182;5.404;2024-01-11T12:34:25;103855.88;;;4.71;100.00
36010;BME280;22076;52.182;5.404;2024-01-11T12:36:53;103850.16;;;4.91;100.00
36010;BME280;22076;52.182;5.404;2024-01-11T12:39:20;103842.41;;;4.92;100.00
36010;BME280;22076;52.182;5.404;2024-01-11T12:41:50;103839.16;;;5.06;100.00
36010;BME280;22076;52.182;5.404;2024-01-11T12:44:18;103837.91;;;4.82;100.00
36010;BME280;22076;52.182;5.404;2024-01-11T12:46:48;103829.22;;;5.37;100.00
36010;BME280;22076;52.182;5.404;2024-01-11T12:49:15;103829.25;;;5.38;100.00
36010;BME280;22076;52.182;5.404;2024-01-11T12:51:42;103816.34;;;5.41;100.00
36010;BME280;22076;52.182;5.404;2024-01-11T12:54:12;103809.69;;;5.63;100.00